Flight Track Log - Related Links

Times and Time Zones

All times are in EDT time to prevent confusion due to time zone crossing. See the TAM3199 flight status page for this flight to view local times or setup timezone preferences in your user account.

Time Position Orientation Groundspeed Altitude Reporting Facility
EDT Latitude Longitude Course Direction KTS MPH feet Rate Location/Type
Mon 10:00:00 AM -21.9753 -42.2589 227° Southwest  Level Estimated
Mon 10:01:00 AM -22.0169 -42.3076 227° Southwest  Level Estimated
Mon 10:02:00 AM -22.0585 -42.3563 227° Southwest  Level Estimated
Mon 10:03:00 AM -22.1000 -42.4051 227° Southwest  Level Estimated
Mon 10:04:00 AM -22.1416 -42.4539 227° Southwest  Level Estimated
Mon 10:05:00 AM -22.1831 -42.5027 227° Southwest  Level Estimated
Mon 10:06:00 AM -22.2246 -42.5515 227° Southwest  Level Estimated
Mon 10:07:00 AM -22.2661 -42.6004 227° Southwest  Level Estimated
Mon 10:08:00 AM -22.3076 -42.6493 227° Southwest  Level Estimated
Mon 10:09:00 AM -22.3491 -42.6982 227° Southwest  Level Estimated
Mon 10:10:00 AM -22.3906 -42.7471 228° Southwest  Level Estimated
Mon 10:11:00 AM -22.4320 -42.7961 228° Southwest  Level Estimated
Mon 10:12:00 AM -22.4735 -42.8451 228° Southwest  Level Estimated
Mon 10:13:00 AM -22.5149 -42.8941 228° Southwest  Level Estimated
Mon 10:14:00 AM -22.5563 -42.9432 228° Southwest  Level Estimated
Mon 10:15:00 AM -22.5977 -42.9923 228° Southwest  Level Estimated
Mon 10:16:00 AM -22.6390 -43.0415 228° Southwest  Level Estimated
Mon 10:17:00 AM -22.6804 -43.0906 228° Southwest  Level Estimated
Mon 10:18:00 AM -22.7217 -43.1398 228° Southwest  Level Estimated
Mon 10:19:00 AM -22.7631 -43.1890 228° Southwest  Level Estimated
Mon 10:20:00 AM -22.8044 -43.2383 228° Southwest  Level Estimated
Mon 10:21:00 AM -22.8089 -43.2436 228° Southwest  Level Estimated
Mon 10:22:00 AM -22.8089 -43.2436 137° Southeast  Level Estimated
Mon 10:23:00 AM -22.8089 -43.2436 137° Southeast  Level Estimated
Mon 10:24:00 AM -22.8089 -43.2436 137° Southeast  Level Estimated
Mon 10:25:00 AM -22.8089 -43.2436 137° Southeast  Level Estimated
Mon 10:26:00 AM -22.8089 -43.2436 137° Southeast  Level Estimated
Mon 10:27:00 AM -22.8089 -43.2436 137° Southeast  Level Estimated
Mon 10:28:00 AM -22.8089 -43.2436 137° Southeast  Level Estimated
Mon 10:29:00 AM -22.8089 -43.2436 137° Southeast  Level Estimated

Login

Don't have an account? Register now (free) for customized features, flight alerts, and more!